createdAt,value
2022-12-19T00:01:39.314Z,102083.19
2022-12-19T00:04:11.135Z,102083.69
2022-12-19T00:06:41.334Z,102074.06
2022-12-19T00:09:12.411Z,102072.44
2022-12-19T00:11:40.663Z,102066.97
2022-12-19T00:14:10.233Z,102059.06
2022-12-19T00:16:37.314Z,102054.44
2022-12-19T00:19:04.463Z,102053.66
2022-12-19T00:21:34.879Z,102061.56
2022-12-19T00:24:03.268Z,102054.44
2022-12-19T00:26:34.807Z,102057.69
2022-12-19T00:29:09.806Z,102053.53
2022-12-19T00:31:41.061Z,102049.88
2022-12-19T00:34:09.422Z,102044.34
2022-12-19T00:36:36.453Z,102040.78
2022-12-19T00:39:08.210Z,102042.97
2022-12-19T00:41:41.380Z,102047.97
2022-12-19T00:44:16.045Z,102048.19
2022-12-19T00:46:49.702Z,102035.75
2022-12-19T00:49:20.297Z,102038.47
2022-12-19T00:51:47.313Z,102041.06
2022-12-19T00:54:14.857Z,102040.88
2022-12-19T00:56:42.256Z,102028.56
2022-12-19T00:59:10.369Z,102022.53
2022-12-19T01:01:41.003Z,102020.84
2022-12-19T01:04:30.788Z,102013.53
2022-12-19T01:07:02.457Z,102011.44
2022-12-19T01:09:31.021Z,101999.31
2022-12-19T01:12:16.908Z,102001.84
2022-12-19T01:14:44.143Z,101993.88
2022-12-19T01:17:11.602Z,101996.00
2022-12-19T01:19:43.927Z,101993.25
2022-12-19T01:22:11.651Z,101989.31
2022-12-19T01:24:38.789Z,101980.53
2022-12-19T01:27:05.735Z,101968.00
2022-12-19T01:29:33.211Z,101965.41
2022-12-19T01:32:02.614Z,101966.69
2022-12-19T01:34:29.803Z,101959.59
2022-12-19T01:36:58.079Z,101971.16
2022-12-19T01:39:25.151Z,101977.00
2022-12-19T01:41:54.787Z,101960.72
2022-12-19T01:44:25.640Z,101964.09
2022-12-19T01:46:59.330Z,101947.47
2022-12-19T01:49:31.243Z,101952.34
2022-12-19T01:52:06.083Z,101943.25
2022-12-19T01:54:37.107Z,101929.81
2022-12-19T01:57:10.540Z,101927.94
2022-12-19T01:59:45.338Z,101925.81
2022-12-19T02:02:19.833Z,101915.16
2022-12-19T02:04:48.185Z,101918.25
2022-12-19T02:07:20.113Z,101912.34
2022-12-19T02:09:57.254Z,101911.75
2022-12-19T02:12:26.932Z,101914.50
2022-12-19T02:15:01.040Z,101912.59
2022-12-19T02:17:45.180Z,101902.97
2022-12-19T02:20:42.386Z,101897.16
2022-12-19T02:23:54.313Z,101905.00
2022-12-19T02:26:49.287Z,101895.25
2022-12-19T02:30:01.429Z,101901.53
2022-12-19T02:32:41.271Z,101898.00
2022-12-19T02:35:18.980Z,101895.25
2022-12-19T02:37:54.723Z,101887.94
2022-12-19T02:40:31.744Z,101876.56
2022-12-19T02:43:03.596Z,101874.03
2022-12-19T02:45:37.650Z,101872.06
2022-12-19T02:48:09.275Z,101865.53
2022-12-19T02:50:43.147Z,101868.88
2022-12-19T02:53:13.240Z,101867.56
2022-12-19T02:55:49.250Z,101864.72
2022-12-19T02:58:44.235Z,101872.56
2022-12-19T03:01:36.527Z,101875.44
2022-12-19T03:04:17.419Z,101876.16
2022-12-19T03:06:52.551Z,101878.38
2022-12-19T03:09:31.910Z,101874.84
2022-12-19T03:12:09.889Z,101863.31
2022-12-19T03:14:40.909Z,101858.38
2022-12-19T03:17:08.735Z,101849.84
2022-12-19T03:19:40.815Z,101849.84
2022-12-19T03:22:08.301Z,101856.50
2022-12-19T03:24:35.746Z,101851.28
2022-12-19T03:27:10.099Z,101852.47
2022-12-19T03:29:45.573Z,101848.66
2022-12-19T03:32:15.707Z,101835.97
2022-12-19T03:34:47.767Z,101831.47
2022-12-19T03:37:20.776Z,101831.81
2022-12-19T03:39:52.632Z,101820.91
2022-12-19T03:42:43.673Z,101823.25
2022-12-19T03:45:16.135Z,101818.72
2022-12-19T03:47:50.704Z,101814.94
2022-12-19T03:50:23.911Z,101809.22
2022-12-19T03:53:06.649Z,101806.13
2022-12-19T03:55:42.632Z,101805.06
2022-12-19T03:58:15.378Z,101799.59
2022-12-19T04:00:47.298Z,101804.00
2022-12-19T04:03:17.817Z,101795.91
2022-12-19T04:05:48.442Z,101801.59
2022-12-19T04:08:17.109Z,101793.41
2022-12-19T04:10:51.384Z,101784.47
2022-12-19T04:13:26.018Z,101775.56
2022-12-19T04:16:07.437Z,101779.94
2022-12-19T04:18:37.629Z,101772.25
2022-12-19T04:21:13.403Z,101773.56
2022-12-19T04:23:47.487Z,101771.41
2022-12-19T04:26:18.624Z,101758.78
2022-12-19T04:28:52.841Z,101763.75
2022-12-19T04:31:21.827Z,101751.28
2022-12-19T04:33:48.879Z,101753.88
2022-12-19T04:36:17.313Z,101746.97
2022-12-19T04:38:44.418Z,101752.22
2022-12-19T04:41:11.330Z,101742.34
2022-12-19T04:43:38.281Z,101743.66
2022-12-19T04:46:05.652Z,101728.56
2022-12-19T04:48:35.552Z,101712.59
2022-12-19T04:51:02.548Z,101713.75
2022-12-19T04:53:32.308Z,101720.91
2022-12-19T04:56:03.715Z,101712.13
2022-12-19T04:58:30.698Z,101712.69
2022-12-19T05:01:01.916Z,101691.75
2022-12-19T05:03:28.999Z,101706.38
2022-12-19T05:06:05.374Z,101702.50
2022-12-19T05:08:34.704Z,101699.50
2022-12-19T05:11:02.646Z,101692.34
2022-12-19T05:13:30.235Z,101688.50
2022-12-19T05:15:58.481Z,101687.31
2022-12-19T05:18:26.564Z,101685.78
2022-12-19T05:20:53.767Z,101685.06
2022-12-19T05:23:21.842Z,101683.03
2022-12-19T05:25:51.014Z,101674.34
2022-12-19T05:28:19.479Z,101668.72
2022-12-19T05:30:51.939Z,101659.34
2022-12-19T05:33:19.348Z,101670.63
2022-12-19T05:35:47.774Z,101671.34
2022-12-19T05:38:14.694Z,101663.50
2022-12-19T05:40:43.574Z,101674.66
2022-12-19T05:43:11.839Z,101673.00
2022-12-19T05:45:39.983Z,101658.25
2022-12-19T05:48:06.924Z,101663.00
2022-12-19T05:50:36.628Z,101658.31
2022-12-19T05:53:03.603Z,101650.59
2022-12-19T05:55:30.712Z,101655.13
2022-12-19T05:57:57.645Z,101647.78
2022-12-19T06:00:25.942Z,101646.16
2022-12-19T06:02:53.017Z,101638.00
2022-12-19T06:05:20.051Z,101634.22
2022-12-19T06:07:47.022Z,101637.69
2022-12-19T06:10:14.196Z,101625.88
2022-12-19T06:12:41.179Z,101631.69
2022-12-19T06:15:09.571Z,101629.75
2022-12-19T06:17:38.103Z,101623.16
2022-12-19T06:20:06.872Z,101620.53
2022-12-19T06:22:34.999Z,101630.28
2022-12-19T06:25:01.948Z,101615.97
2022-12-19T06:27:28.941Z,101619.28
2022-12-19T06:29:55.919Z,101615.59
2022-12-19T06:32:22.882Z,101606.91
2022-12-19T06:35:06.391Z,101609.38
2022-12-19T06:37:33.365Z,101615.44
2022-12-19T06:40:00.323Z,101601.13
2022-12-19T06:42:27.286Z,101593.16
2022-12-19T06:44:56.390Z,101596.88
2022-12-19T06:47:24.685Z,101595.03
2022-12-19T06:49:53.313Z,101591.44
2022-12-19T06:52:20.294Z,101590.34
2022-12-19T06:54:47.220Z,101579.84
2022-12-19T06:57:14.248Z,101589.19
2022-12-19T06:59:41.198Z,101593.19
2022-12-19T07:02:23.650Z,101590.31
2022-12-19T07:05:01.143Z,101595.56
2022-12-19T07:07:29.602Z,101590.31
2022-12-19T07:09:56.594Z,101586.75
2022-12-19T07:12:23.581Z,101597.22
2022-12-19T07:14:53.608Z,101594.16
2022-12-19T07:17:23.310Z,101594.66
2022-12-19T07:19:54.210Z,101593.72
2022-12-19T07:22:22.403Z,101590.56
2022-12-19T07:24:49.619Z,101595.56
2022-12-19T07:27:16.806Z,101593.63
2022-12-19T07:29:43.748Z,101593.91
2022-12-19T07:32:10.841Z,101607.53
2022-12-19T07:34:37.853Z,101597.91
2022-12-19T07:37:06.919Z,101605.06
2022-12-19T07:39:33.959Z,101601.03
2022-12-19T07:42:00.931Z,101600.09
2022-12-19T07:44:27.889Z,101597.72
2022-12-19T07:46:54.852Z,101593.47
2022-12-19T07:49:22.971Z,101596.09
2022-12-19T07:51:51.057Z,101592.81
2022-12-19T07:54:19.715Z,101579.59
2022-12-19T07:56:46.785Z,101580.97
2022-12-19T07:59:13.772Z,101585.25
2022-12-19T08:01:40.850Z,101590.34
2022-12-19T08:04:07.944Z,101574.59
2022-12-19T08:06:40.806Z,101580.97
2022-12-19T08:09:08.539Z,101591.97
2022-12-19T08:11:36.834Z,101583.44
2022-12-19T08:14:03.916Z,101581.31
2022-12-19T08:16:31.423Z,101564.69
2022-12-19T08:18:58.434Z,101581.50
2022-12-19T08:21:25.678Z,101566.34
2022-12-19T08:23:52.886Z,101582.38
2022-12-19T08:26:25.501Z,101568.03
2022-12-19T08:28:56.117Z,101570.78
2022-12-19T08:31:26.108Z,101581.84
2022-12-19T08:33:56.077Z,101570.94
2022-12-19T08:36:24.638Z,101581.84
2022-12-19T08:38:52.517Z,101568.59
2022-12-19T08:41:20.176Z,101575.13
2022-12-19T08:43:51.481Z,101572.06
2022-12-19T08:46:21.949Z,101568.09
2022-12-19T08:48:54.053Z,101567.69
2022-12-19T08:51:21.035Z,101555.53
2022-12-19T08:53:48.147Z,101569.63
2022-12-19T08:56:18.307Z,101560.09
2022-12-19T08:58:46.223Z,101557.91
2022-12-19T09:01:20.518Z,101562.03
2022-12-19T09:03:51.980Z,101554.59
2022-12-19T09:06:34.860Z,101561.06
2022-12-19T09:09:03.443Z,101546.31
2022-12-19T09:11:31.071Z,101554.59
2022-12-19T09:14:01.279Z,101549.63
2022-12-19T09:16:29.630Z,101563.69
2022-12-19T09:19:00.895Z,101555.13
2022-12-19T09:21:32.756Z,101560.41
2022-12-19T09:24:07.404Z,101550.47
2022-12-19T09:26:38.096Z,101547.19
2022-12-19T09:29:12.667Z,101557.94
2022-12-19T09:31:55.677Z,101547.47
2022-12-19T09:34:36.706Z,101549.13
2022-12-19T09:37:07.020Z,101538.38
2022-12-19T09:39:35.073Z,101532.59
2022-12-19T09:42:24.095Z,101535.75
2022-12-19T09:45:19.511Z,101539.47
2022-12-19T09:47:59.083Z,101537.97
2022-12-19T09:50:46.550Z,101532.72
2022-12-19T09:53:25.264Z,101524.88
2022-12-19T09:55:54.086Z,101514.94
2022-12-19T09:58:34.845Z,101519.94
2022-12-19T10:01:08.165Z,101509.97
2022-12-19T10:03:41.755Z,101519.63
2022-12-19T10:07:19.797Z,101517.41
2022-12-19T10:11:30.738Z,101520.19
2022-12-19T10:12:42.765Z,101525.16
2022-12-19T10:15:27.387Z,101520.19
2022-12-19T10:18:26.459Z,101522.53
2022-12-19T10:21:05.986Z,101510.25
2022-12-19T10:24:15.302Z,101511.06
2022-12-19T10:26:50.867Z,101510.78
2022-12-19T10:29:56.831Z,101500.97
2022-12-19T10:32:37.723Z,101500.81
2022-12-19T10:35:15.016Z,101504.81
2022-12-19T10:37:53.247Z,101503.81
2022-12-19T10:40:30.781Z,101505.50
2022-12-19T10:43:11.651Z,101508.78
2022-12-19T10:45:46.991Z,101492.31
2022-12-19T10:48:22.014Z,101497.53
2022-12-19T10:50:55.114Z,101497.31
2022-12-19T10:53:32.005Z,101490.66
2022-12-19T10:56:11.338Z,101486.78
2022-12-19T10:58:42.419Z,101495.31
2022-12-19T11:01:15.503Z,101498.06
2022-12-19T11:03:46.796Z,101495.50
2022-12-19T11:06:43.596Z,101488.84
2022-12-19T11:09:25.695Z,101490.19
2022-12-19T11:15:30.152Z,101485.03
2022-12-19T11:18:07.133Z,101482.06
2022-12-19T11:29:16.862Z,101484.72
2022-12-19T11:29:17.732Z,101481.81
2022-12-19T11:29:33.110Z,101482.50
2022-12-19T11:30:46.601Z,101470.94
2022-12-19T11:30:48.671Z,101478.72
2022-12-19T11:34:32.345Z,101468.22
2022-12-19T11:37:19.651Z,101469.41
2022-12-19T11:39:52.679Z,101473.91
2022-12-19T11:42:29.333Z,101465.28
2022-12-19T11:45:11.949Z,101462.19
2022-12-19T11:47:47.789Z,101457.97
2022-12-19T11:50:24.040Z,101463.41
2022-12-19T11:53:04.404Z,101465.25
2022-12-19T11:55:43.725Z,101460.78
2022-12-19T11:58:13.215Z,101455.06
2022-12-19T12:00:55.469Z,101462.19
2022-12-19T12:04:02.338Z,101453.44
2022-12-19T12:06:45.378Z,101461.22
2022-12-19T12:15:10.009Z,101458.06
2022-12-19T12:18:12.787Z,101449.91
2022-12-19T12:24:24.037Z,101448.97
2022-12-19T12:31:10.434Z,101441.09
2022-12-19T12:31:28.655Z,101435.88
2022-12-19T12:31:48.511Z,101427.66
2022-12-19T12:32:04.829Z,101432.56
2022-12-19T12:35:43.565Z,101441.19
2022-12-19T12:36:00.030Z,101438.22
2022-12-19T12:41:04.682Z,101419.81
2022-12-19T12:44:02.812Z,101421.78
2022-12-19T12:46:40.266Z,101432.72
2022-12-19T12:49:34.650Z,101421.84
2022-12-19T12:52:06.640Z,101424.00
2022-12-19T12:54:37.754Z,101434.72
2022-12-19T12:57:05.382Z,101427.78
2022-12-19T12:59:32.693Z,101437.38
2022-12-19T13:02:13.822Z,101433.09
2022-12-19T13:04:56.130Z,101425.84
2022-12-19T13:07:41.950Z,101425.84
2022-12-19T13:10:24.895Z,101420.41
2022-12-19T13:13:02.418Z,101418.59
2022-12-19T13:15:40.558Z,101419.44
2022-12-19T13:18:34.748Z,101419.44
2022-12-19T13:21:07.803Z,101415.63
2022-12-19T13:23:48.528Z,101414.47
2022-12-19T13:26:46.881Z,101411.19
2022-12-19T13:29:31.684Z,101416.28
2022-12-19T13:32:16.091Z,101415.31
2022-12-19T13:35:12.433Z,101415.50
2022-12-19T13:39:50.679Z,101422.78
2022-12-19T13:40:54.598Z,101415.81
2022-12-19T13:43:46.334Z,101414.03
2022-12-19T13:46:30.474Z,101409.59
2022-12-19T13:49:03.601Z,101402.81
2022-12-19T13:51:46.128Z,101404.97
2022-12-19T13:54:23.420Z,101411.69
2022-12-19T13:56:52.796Z,101410.22
2022-12-19T13:59:23.535Z,101401.31
2022-12-19T14:01:53.203Z,101411.06
2022-12-19T14:04:28.963Z,101402.81
2022-12-19T14:07:03.653Z,101409.06
2022-12-19T14:11:26.070Z,101410.03
2022-12-19T14:14:01.204Z,101408.72
2022-12-19T14:15:35.752Z,101404.78
2022-12-19T14:18:44.269Z,101414.50
2022-12-19T14:22:05.621Z,101407.22
2022-12-19T14:24:19.844Z,101396.50
2022-12-19T14:28:20.908Z,101393.16
2022-12-19T14:30:27.795Z,101408.34
2022-12-19T14:33:44.055Z,101402.41
2022-12-19T14:36:10.891Z,101400.41
2022-12-19T14:39:21.229Z,101409.50
2022-12-19T14:42:00.676Z,101408.34
2022-12-19T14:52:08.634Z,101395.84
2022-12-19T14:54:03.493Z,101402.41
2022-12-19T14:54:13.316Z,101405.72
2022-12-19T14:54:30.698Z,101398.09
2022-12-19T14:56:36.250Z,101398.09
2022-12-19T14:59:27.716Z,101393.16
2022-12-19T15:02:02.315Z,101387.66
2022-12-19T15:04:49.021Z,101388.16
2022-12-19T15:07:25.342Z,101386.19
2022-12-19T15:11:04.629Z,101386.84
2022-12-19T15:14:51.987Z,101375.94
2022-12-19T15:16:04.970Z,101375.63
2022-12-19T15:18:40.021Z,101381.88
2022-12-19T15:21:10.943Z,101376.09
2022-12-19T15:23:38.628Z,101368.00
2022-12-19T15:26:12.986Z,101368.66
2022-12-19T15:28:50.122Z,101363.53
2022-12-19T15:31:34.361Z,101357.44
2022-12-19T15:34:34.242Z,101360.72
2022-12-19T15:37:00.587Z,101371.28
2022-12-19T15:39:30.134Z,101364.03
2022-12-19T15:42:03.292Z,101360.88
2022-12-19T15:44:35.145Z,101361.06
2022-12-19T15:47:05.134Z,101358.41
2022-12-19T15:49:34.895Z,101354.41
2022-12-19T15:52:03.046Z,101347.66
2022-12-19T15:57:29.090Z,101344.19
2022-12-19T16:00:00.708Z,101337.75
2022-12-19T16:03:04.532Z,101336.91
2022-12-19T16:05:21.096Z,101341.22
2022-12-19T16:07:49.407Z,101333.75
2022-12-19T16:10:18.516Z,101335.94
2022-12-19T16:12:50.852Z,101333.28
2022-12-19T16:15:26.013Z,101331.03
2022-12-19T16:17:54.374Z,101330.16
2022-12-19T16:20:25.309Z,101327.38
2022-12-19T16:22:55.293Z,101340.78
2022-12-19T16:25:33.265Z,101341.41
2022-12-19T16:28:02.231Z,101341.94
2022-12-19T16:30:33.661Z,101330.69
2022-12-19T16:33:02.414Z,101338.59
2022-12-19T16:36:02.281Z,101336.97
2022-12-19T16:38:18.769Z,101333.38
2022-12-19T16:40:48.082Z,101335.66
2022-12-19T16:43:25.429Z,101344.59
2022-12-19T16:45:59.820Z,101339.63
2022-12-19T16:48:30.045Z,101338.50
2022-12-19T16:50:58.318Z,101333.41
2022-12-19T16:53:29.845Z,101331.09
2022-12-19T16:56:00.849Z,101342.69
2022-12-19T16:58:29.495Z,101348.97
2022-12-19T17:01:01.269Z,101352.59
2022-12-19T17:03:37.372Z,101358.56
2022-12-19T17:06:04.795Z,101359.53
2022-12-19T17:08:33.061Z,101364.63
2022-12-19T17:11:00.284Z,101364.50
2022-12-19T17:13:27.550Z,101377.00
2022-12-19T17:15:57.343Z,101383.09
2022-12-19T17:18:33.100Z,101383.69
2022-12-19T17:21:01.556Z,101374.59
2022-12-19T17:23:32.276Z,101369.00
2022-12-19T17:26:00.862Z,101363.78
2022-12-19T17:28:29.014Z,101347.97
2022-12-19T17:31:02.586Z,101357.53
2022-12-19T17:33:36.567Z,101351.13
2022-12-19T17:36:06.677Z,101349.94
2022-12-19T17:38:34.532Z,101342.22
2022-12-19T17:41:01.718Z,101339.56
2022-12-19T17:43:29.381Z,101333.66
2022-12-19T17:45:57.077Z,101333.81
2022-12-19T17:48:28.513Z,101323.88
2022-12-19T17:50:58.239Z,101317.97
2022-12-19T17:53:26.465Z,101323.56
2022-12-19T17:55:53.694Z,101314.22
2022-12-19T17:58:21.554Z,101319.38
2022-12-19T18:00:51.608Z,101321.00
2022-12-19T18:03:22.976Z,101325.94
2022-12-19T18:05:52.617Z,101334.19
2022-12-19T18:08:27.333Z,101329.22
2022-12-19T18:10:59.321Z,101330.19
2022-12-19T18:13:29.242Z,101329.88
2022-12-19T18:15:59.655Z,101346.03
2022-12-19T18:18:31.009Z,101347.84
2022-12-19T18:21:00.430Z,101347.03
2022-12-19T18:23:30.528Z,101343.25
2022-12-19T18:26:01.809Z,101346.69
2022-12-19T18:28:30.471Z,101339.72
2022-12-19T18:31:02.938Z,101347.50
2022-12-19T18:33:38.789Z,101353.09
2022-12-19T18:36:08.215Z,101350.94
2022-12-19T18:38:36.558Z,101349.47
2022-12-19T18:41:03.809Z,101351.28
2022-12-19T18:43:31.939Z,101347.00
2022-12-19T18:45:58.971Z,101356.22
2022-12-19T18:48:30.660Z,101345.50
2022-12-19T18:51:00.308Z,101332.78
2022-12-19T18:53:35.280Z,101331.47
2022-12-19T18:56:06.036Z,101330.44
2022-12-19T18:58:34.327Z,101328.75
2022-12-19T19:01:03.835Z,101320.50
2022-12-19T19:03:34.272Z,101322.31
2022-12-19T19:06:05.334Z,101335.31
2022-12-19T19:08:34.267Z,101322.09
2022-12-19T19:11:01.350Z,101327.50
2022-12-19T19:13:29.715Z,101335.31
2022-12-19T19:15:59.765Z,101337.63
2022-12-19T19:18:34.462Z,101332.66
2022-12-19T19:21:02.867Z,101331.69
2022-12-19T19:23:38.055Z,101341.25
2022-12-19T19:26:05.920Z,101338.28
2022-12-19T19:28:37.068Z,101350.69
2022-12-19T19:31:08.679Z,101345.56
2022-12-19T19:33:40.760Z,101346.59
2022-12-19T19:36:13.309Z,101338.38
2022-12-19T19:38:47.451Z,101347.94
2022-12-19T19:41:14.430Z,101346.78
2022-12-19T19:43:42.728Z,101346.28
2022-12-19T19:46:09.846Z,101350.91
2022-12-19T19:48:37.024Z,101351.22
2022-12-19T19:51:04.304Z,101349.56
2022-12-19T19:53:31.351Z,101350.19
2022-12-19T19:56:03.887Z,101346.72
2022-12-19T19:58:31.093Z,101344.75
2022-12-19T20:00:59.603Z,101339.63
2022-12-19T20:03:27.590Z,101336.84
2022-12-19T20:05:59.892Z,101336.31
2022-12-19T20:08:27.112Z,101330.69
2022-12-19T20:10:55.907Z,101331.03
2022-12-19T20:13:23.081Z,101324.59
2022-12-19T20:15:50.510Z,101330.34
2022-12-19T20:18:19.129Z,101331.63
2022-12-19T20:20:48.610Z,101322.53
2022-12-19T20:23:15.653Z,101320.59
2022-12-19T20:25:43.069Z,101327.06
2022-12-19T20:28:10.240Z,101333.50
2022-12-19T20:30:37.317Z,101338.66
2022-12-19T20:33:04.410Z,101346.72
2022-12-19T20:35:32.814Z,101343.94
2022-12-19T20:37:59.768Z,101328.09
2022-12-19T20:40:27.542Z,101326.09
2022-12-19T20:42:54.722Z,101333.38
2022-12-19T20:45:22.452Z,101343.94
2022-12-19T20:47:49.432Z,101350.03
2022-12-19T20:50:16.682Z,101356.94
2022-12-19T20:52:46.020Z,101361.41
2022-12-19T20:55:13.086Z,101351.66
2022-12-19T20:57:40.024Z,101352.50
2022-12-19T21:00:10.130Z,101365.06
2022-12-19T21:03:00.635Z,101375.94
2022-12-19T21:05:24.139Z,101371.75
2022-12-19T21:07:52.455Z,101373.59
2022-12-19T21:10:20.403Z,101367.31
2022-12-19T21:12:48.199Z,101355.75
2022-12-19T21:15:15.797Z,101364.47
2022-12-19T21:17:42.969Z,101366.31
2022-12-19T21:20:11.148Z,101366.97
2022-12-19T21:22:38.127Z,101359.38
2022-12-19T21:25:07.499Z,101365.31
2022-12-19T21:27:34.468Z,101361.69
2022-12-19T21:30:01.406Z,101360.53
2022-12-19T21:32:28.515Z,101367.44
2022-12-19T21:34:55.480Z,101371.22
2022-12-19T21:37:24.124Z,101367.88
2022-12-19T21:39:51.120Z,101369.06
2022-12-19T21:42:19.405Z,101363.59
2022-12-19T21:44:46.346Z,101365.94
2022-12-19T21:47:13.408Z,101368.88
2022-12-19T21:49:40.472Z,101370.50
2022-12-19T21:52:07.436Z,101368.25
2022-12-19T21:54:34.545Z,101374.50
2022-12-19T21:57:01.508Z,101380.63
2022-12-19T21:59:29.896Z,101380.13
2022-12-19T22:01:57.705Z,101363.16
2022-12-19T22:04:27.302Z,101368.97
2022-12-19T22:06:54.319Z,101362.03
2022-12-19T22:09:22.985Z,101351.81
2022-12-19T22:11:50.168Z,101352.63
2022-12-19T22:14:18.128Z,101359.72
2022-12-19T22:16:46.479Z,101355.78
2022-12-19T22:19:16.312Z,101351.34
2022-12-19T22:21:44.120Z,101350.50
2022-12-19T22:24:14.127Z,101352.16
2022-12-19T22:26:41.645Z,101344.41
2022-12-19T22:29:11.628Z,101347.56
2022-12-19T22:31:39.863Z,101344.09
2022-12-19T22:34:11.466Z,101347.56
2022-12-19T22:36:41.852Z,101356.31
2022-12-19T22:39:12.306Z,101347.22
2022-12-19T22:41:40.664Z,101341.09
2022-12-19T22:44:08.534Z,101342.13
2022-12-19T22:46:37.592Z,101340.28
2022-12-19T22:49:08.684Z,101343.94
2022-12-19T22:51:36.777Z,101340.94
2022-12-19T22:54:05.930Z,101345.56
2022-12-19T22:56:35.258Z,101339.47
2022-12-19T22:59:06.337Z,101347.56
2022-12-19T23:01:36.829Z,101337.00
2022-12-19T23:04:06.422Z,101340.28
2022-12-19T23:06:36.969Z,101337.81
2022-12-19T23:09:05.252Z,101331.38
2022-12-19T23:11:35.987Z,101333.84
2022-12-19T23:14:06.353Z,101334.00
2022-12-19T23:16:33.491Z,101328.34
2022-12-19T23:19:00.535Z,101334.56
2022-12-19T23:21:28.029Z,101331.09
2022-12-19T23:23:58.013Z,101332.56
2022-12-19T23:26:29.989Z,101324.38
2022-12-19T23:29:00.049Z,101319.44
2022-12-19T23:31:28.354Z,101325.69
2022-12-19T23:33:57.028Z,101321.44
2022-12-19T23:37:00.307Z,101316.94
2022-12-19T23:39:13.286Z,101321.06
2022-12-19T23:41:40.836Z,101322.06
2022-12-19T23:44:08.783Z,101331.63
2022-12-19T23:46:36.704Z,101325.53
2022-12-19T23:49:04.179Z,101318.16
2022-12-19T23:51:31.423Z,101322.41
2022-12-19T23:53:58.486Z,101316.16
2022-12-19T23:56:29.014Z,101314.47
2022-12-19T23:58:57.124Z,101314.91
